Terminal Aerodrome Forecast
Issued by NWS St Louis, MO

Home | Current Version | Previous Version | Text Only | Print | Product List | Glossary On
Versions: 1 2 3 4 5 6 7 8 9 10 11 12 13 14 15 16 17 18 19 20
000
FTUS43 KLSX 220800 AAA
TAFCOU
TAF AMD
KCOU 220800Z 2208/2306 32013KT 6SM -SHRA VCTS SCT015 OVC040CB
     FM220900 31014G20KT 6SM -SHRA SCT007 OVC015
      TEMPO 2209/2213 BKN007
     FM221500 32012KT P6SM BKN020
     FM221800 31011KT P6SM BKN040
     FM230000 VRB04KT P6SM SKC=

USA.gov is the U.S. government's official web portal to all federal, state and local government web resources and services.